Terminal Aerodrome Forecast
Issued by NWS Boise, ID

Home | Current Version | Previous Version | Text Only | Print | Product List | Glossary On
Versions: 1 2 3 4 5 6 7 8 9 10 11 12 13 14 15 16 17 18 19 20 21 22 23 24 25 26 27 28 29 30 31 32
000
FTUS45 KBOI 312338
TAFBOI
TAF
KBOI 312338Z 0100/0124 32007KT P6SM BKN100 OVC200
      TEMPO 0100/0102 07020G30KT P6SM BKN100
     FM010500 15006KT P6SM FEW100 BKN200
     FM012000 30007KT P6SM SCT120=

USA.gov is the U.S. government's official web portal to all federal, state and local government web resources and services.